Latest Weather Observations for Mount Ginini

IDN60801

Issued at 4:12 am EST Sunday 21 July 2019 (issued every 10 minutes, with the page automatically refreshed every 10 minutes)

About weather observations | Map of weather stations | Latest weather observations for NSW | Other Formats
Station Details ID: 070349 Name: MOUNT GININI AWS Lat: -35.53 Lon: 148.77 Height: 1760.0 m
Data from the previous 72 hours. | See also: Recent months at Mount Ginini
Date/Time
EST
Temp
°C
App
Temp
°C
Dew
Point
°C
Rel
Hum
%
Delta-T
°C
Wind Press
QNH
hPa
Press
MSL
hPa
Rain since
9am
mm
Dir  Spd
km/h
Gust
km/h
Spd
kts
Gust
kts
21/04:00am 0.1 - - - - WNW 22 43 12 23 - - 0.0
21/03:30am -0.2 - - - - WNW 24 50 13 27 - - 0.0
21/03:00am -0.1 - - - - WNW 26 44 14 24 - - 0.0
21/02:30am 0.0 - - - - WNW 24 43 13 23 - - 0.0
21/02:00am 0.1 - - - - NW 24 43 13 23 - - 0.0
21/01:30am 0.3 - - - - NW 28 44 15 24 - - 0.0
21/01:00am 0.2 - - - - NW 22 41 12 22 - - 0.0
21/12:30am 0.5 - - - - NW 26 43 14 23 - - 0.0
21/12:00am 0.6 - - - - NW 28 52 15 28 - - 0.0
 
Date/Time
EST
Temp
°C
App
Temp
°C
Dew
Point
°C
Rel
Hum
%
Delta-T
°C
Wind Press
QNH
hPa
Press
MSL
hPa
Rain since
9am
mm
Dir  Spd
km/h
Gust
km/h
Spd
kts
Gust
kts
20/11:57pm 0.5 - - - - NW 28 48 15 26 - - 0.0
20/11:30pm 0.3 - - - - NW 24 44 13 24 - - 0.0
20/11:00pm 0.2 - - - - NW 28 50 15 27 - - 0.0
20/10:45pm 0.2 - - - - NW 28 48 15 26 - - 0.0
20/10:30pm 0.2 - - - - NW 28 43 15 23 - - 0.0
20/10:00pm 0.2 - - - - NW 24 37 13 20 - - 0.0
20/09:30pm -0.4 - - - - WNW 20 30 11 16 - - 0.0
20/09:00pm -0.5 - - - - WNW 20 30 11 16 - - 0.0
20/08:30pm -0.6 - - - - WNW 20 30 11 16 - - 0.0
20/08:00pm -0.3 - - - - WNW 20 30 11 16 - - 0.0
20/07:30pm 0.0 - - - - WNW 19 26 10 14 - - 0.0
20/07:00pm 0.0 - - - - WNW 17 26 9 14 - - 0.0
20/06:30pm 0.2 - - - - WNW 19 26 10 14 - - 0.0
20/06:00pm 0.6 - - - - WNW 19 28 10 15 - - 0.0
20/05:30pm 0.9 - - - - WNW 17 28 9 15 - - 0.0
20/05:00pm 1.9 - - - - WNW 19 30 10 16 - - 0.0
20/04:30pm 3.1 - - - - WNW 20 32 11 17 - - 0.0
20/04:00pm 3.9 - - - - WNW 19 32 10 17 - - 0.0
20/03:30pm 4.0 - - - - WNW 19 32 10 17 - - 0.0
20/03:00pm 4.2 - - - - WNW 20 35 11 19 - - 0.0
20/02:30pm 4.8 - - - - WNW 19 28 10 15 - - 0.0
20/02:00pm 5.1 - - - - WNW 19 28 10 15 - - 0.0
20/01:30pm 5.8 - - - - WNW 17 26 9 14 - - 0.0
20/01:00pm 6.2 - - - - WNW 15 28 8 15 - - 0.0
20/12:30pm 6.4 - - - - WNW 17 35 9 19 - - 0.0
20/12:00pm 6.7 - - - - WNW 17 30 9 16 - - 0.0
20/11:30am 6.8 - - - - WNW 15 26 8 14 - - 0.0
20/11:00am 6.9 - - - - WNW 15 24 8 13 - - 0.0
20/10:30am 6.4 - - - - WNW 15 24 8 13 - - 0.0
20/10:00am 5.9 - - - - WNW 13 22 7 12 - - 0.0
20/09:30am 4.9 - - - - WNW 13 24 7 13 - - 0.0
20/09:00am 4.1 - - - - W 15 24 8 13 - - 0.0
20/08:30am 3.1 - - - - W 17 22 9 12 - - 0.0
20/08:00am 2.5 - - - - W 17 22 9 12 - - 0.0
20/07:30am 2.2 - - - - W 17 24 9 13 - - 0.0
20/07:00am 2.1 - - - - W 13 20 7 11 - - 0.0
20/06:30am 2.1 - - - - W 15 22 8 12 - - 0.0
20/06:00am 2.3 - - - - W 17 22 9 12 - - 0.0
20/05:30am 2.4 - - - - W 15 24 8 13 - - 0.0
20/05:00am 1.9 - - - - WSW 15 22 8 12 - - 0.0
20/04:30am 0.8 - - - - WSW 13 20 7 11 - - 0.0
20/04:00am 1.1 - - - - WSW 13 22 7 12 - - 0.0
20/03:30am 1.3 - - - - WSW 15 20 8 11 - - 0.0
20/03:00am 1.3 - - - - WSW 13 22 7 12 - - 0.0
20/02:30am 1.4 - - - - WSW 13 19 7 10 - - 0.0
20/02:00am 2.3 - - - - WSW 13 20 7 11 - - 0.0
20/01:30am 1.6 - - - - WSW 13 19 7 10 - - 0.0
20/01:00am 1.5 - - - - SW 13 20 7 11 - - 0.0
20/12:30am 1.6 - - - - SW 13 24 7 13 - - 0.0
20/12:00am 1.6 - - - - SW 13 20 7 11 - - 0.0
 
Date/Time
EST
Temp
°C
App
Temp
°C
Dew
Point
°C
Rel
Hum
%
Delta-T
°C
Wind Press
QNH
hPa
Press
MSL
hPa
Rain since
9am
mm
Dir  Spd
km/h
Gust
km/h
Spd
kts
Gust
kts
19/11:30pm 2.0 - - - - SW 15 22 8 12 - - 0.0
19/11:00pm 1.9 - - - - SW 15 22 8 12 - - 0.0
19/10:30pm 2.0 - - - - SW 13 17 7 9 - - 0.0
19/10:00pm 1.9 - - - - WSW 11 19 6 10 - - 0.0
19/09:30pm 2.4 - - - - SW 9 17 5 9 - - 0.0
19/09:00pm 3.3 - - - - SW 9 15 5 8 - - 0.0
19/08:30pm 3.3 - - - - SW 9 15 5 8 - - 0.0
19/08:00pm 2.9 - - - - SW 13 19 7 10 - - 0.0
19/07:30pm 2.2 - - - - SW 9 15 5 8 - - 0.0
19/07:00pm 1.1 - - - - SSW 17 24 9 13 - - 0.0
19/06:30pm -1.1 - - - - SSW 19 24 10 13 - - 0.0
19/06:00pm -0.9 - - - - SSW 20 26 11 14 - - 0.0
19/05:30pm -0.6 - - - - SW 22 30 12 16 - - 0.0
19/05:00pm 0.1 - - - - SW 20 28 11 15 - - 0.0
19/04:30pm 0.8 - - - - SW 20 30 11 16 - - 0.0
19/04:00pm 1.8 - - - - SW 22 32 12 17 - - 0.0
19/03:30pm 2.1 - - - - SW 19 30 10 16 - - 0.0
19/03:00pm 2.0 - - - - SW 20 32 11 17 - - 0.0
19/02:30pm 2.1 - - - - SW 19 30 10 16 - - 0.0
19/02:00pm 1.7 - - - - SW 24 37 13 20 - - 0.0
19/01:30pm 1.3 - - - - SW 30 41 16 22 - - 0.0
19/01:13pm 1.3 - - - - SW 30 50 16 27 - - 0.0
19/01:00pm 1.2 - - - - SW 24 41 13 22 - - 0.0
19/12:30pm 0.7 - - - - SW 20 33 11 18 - - 0.0
19/12:00pm 0.4 - - - - SW 24 37 13 20 - - 0.0
19/11:30am 0.4 - - - - SW 24 37 13 20 - - 0.0
19/11:00am 0.2 - - - - SW 22 35 12 19 - - 0.0
19/10:30am 0.0 - - - - SW 24 37 13 20 - - 0.0
19/10:00am -0.1 - - - - SW 24 39 13 21 - - 0.0
19/09:30am -0.2 - - - - SW 32 50 17 27 - - 0.0
19/09:16am -0.3 - - - - SW 32 50 17 27 - - 0.0
19/09:00am -0.3 - - - - SW 32 48 17 26 - - 0.0
19/08:33am -0.5 - - - - SW 30 48 16 26 - - 0.0
19/08:30am -0.5 - - - - SW 32 44 17 24 - - 0.0
19/08:04am -0.5 - - - - SW 28 48 15 26 - - 0.0
19/08:00am -0.5 - - - - SW 26 41 14 22 - - 0.0
19/07:50am -0.6 - - - - SW 28 46 15 25 - - 0.0
19/07:30am -0.7 - - - - SW 20 35 11 19 - - 0.0
19/07:00am -0.9 - - - - WSW 22 41 12 22 - - 0.0
19/06:30am -1.1 - - - - SW 22 35 12 19 - - 0.0
19/06:00am -1.3 - - - - SW 22 37 12 20 - - 0.0
19/05:30am -1.8 - - - - SW 19 33 10 18 - - 0.0
19/05:00am -2.4 - - - - SSW 19 26 10 14 - - 0.0
19/04:30am -2.5 - - - - SW 20 39 11 21 - - 0.0
19/04:00am -1.9 - - - - SW 24 46 13 25 - - 0.0
19/03:30am -2.6 - - - - SW 19 33 10 18 - - 0.0
19/03:00am -3.5 - - - - SW 20 32 11 17 - - 0.0
19/02:30am -4.3 - - - - SSW 17 28 9 15 - - 0.0
19/02:00am -4.6 - - - - SW 20 32 11 17 - - 0.0
19/01:30am -4.7 - - - - WSW 20 35 11 19 - - 0.0
19/01:00am -4.8 - - - - SW 22 33 12 18 - - 0.0
19/12:30am -4.6 - - - - WSW 19 33 10 18 - - 0.0
19/12:00am -4.3 - - - - W 17 28 9 15 - - 0.0
 
Date/Time
EST
Temp
°C
App
Temp
°C
Dew
Point
°C
Rel
Hum
%
Delta-T
°C
Wind Press
QNH
hPa
Press
MSL
hPa
Rain since
9am
mm
Dir  Spd
km/h
Gust
km/h
Spd
kts
Gust
kts
18/11:30pm -4.3 - - - - WSW 17 26 9 14 - - 0.0
18/11:00pm -4.1 - - - - WSW 17 30 9 16 - - 0.0
18/10:30pm -4.1 - - - - WSW 13 26 7 14 - - 0.0
18/10:00pm -4.4 - - - - WSW 15 24 8 13 - - 0.0
18/09:30pm -4.1 - - - - WSW 17 28 9 15 - - 0.0
18/09:00pm -3.8 - - - - WSW 17 32 9 17 - - 0.0
18/08:30pm -2.9 - - - - SW 20 41 11 22 - - 0.0
18/08:00pm -2.9 - - - - WSW 22 43 12 23 - - 0.0
18/07:30pm -2.6 - - - - WSW 17 28 9 15 - - 0.0
18/07:00pm -2.6 - - - - WSW 15 28 8 15 - - 0.0
18/06:30pm -1.9 - - - - WSW 19 32 10 17 - - 0.0
18/06:00pm -1.9 - - - - WSW 17 30 9 16 - - 0.0
18/05:30pm -1.9 - - - - WSW 19 32 10 17 - - 0.0
18/05:00pm -0.8 - - - - WSW 17 28 9 15 - - 0.0
18/04:30pm 0.0 - - - - WSW 17 28 9 15 - - 0.0
18/04:00pm 0.2 - - - - SW 17 32 9 17 - - 0.0
18/03:30pm 0.5 - - - - WSW 19 32 10 17 - - 0.0
18/03:00pm 0.9 - - - - WSW 15 28 8 15 - - 0.0
18/02:30pm 0.5 - - - - SW 19 32 10 17 - - 0.0
18/02:00pm 0.4 - - - - SW 15 32 8 17 - - 0.0
18/01:30pm 0.3 - - - - SW 13 28 7 15 - - 0.0
18/01:00pm 0.0 - - - - SW 17 28 9 15 - - 0.0
18/12:30pm -0.1 - - - - SW 15 26 8 14 - - 0.0
18/12:00pm -0.4 - - - - SW 13 26 7 14 - - 0.0
18/11:30am -0.6 - - - - SW 17 26 9 14 - - 0.0
18/11:00am -1.0 - - - - SW 20 39 11 21 - - 0.0
18/10:30am -1.4 - - - - SW 19 35 10 19 - - 0.0
18/10:00am -2.2 - - - - SW 22 37 12 20 - - 0.0
18/09:30am -2.7 - - - - SW 19 30 10 16 - - 0.0
18/09:00am -2.9 - - - - SW 17 32 9 17 - - 1.4
18/08:30am -2.9 - - - - SW 20 30 11 16 - - 1.4
18/08:00am -2.5 - - - - SW 15 26 8 14 - - 1.4
18/07:30am -2.5 - - - - SW 15 26 8 14 - - 1.4
18/07:00am -2.5 - - - - WSW 19 30 10 16 - - 1.4
18/06:30am -2.3 - - - - WSW 20 35 11 19 - - 1.4
18/06:00am -2.1 - - - - WSW 20 33 11 18 - - 1.4
18/05:30am -2.1 - - - - SW 24 39 13 21 - - 1.4
18/05:00am -2.0 - - - - WSW 19 35 10 19 - - 1.4
18/04:30am -1.4 - - - - WSW 22 41 12 22 - - 1.4

Other formats

Comma delimited format used in spreadsheet applications
http://www.bom.gov.au/fwo/IDN60801/IDN60801.95925.axf

JavaScript Object Notation format (JSON) in row-major order
http://www.bom.gov.au/fwo/IDN60801/IDN60801.95925.json

Data quality

Most of these data are generated automatically and are frequently updated. Quality checks on data are not normally performed. It is possible for incorrect values to appear. Refer to information at About Latest Weather Observations and please check the disclaimer before using these data.